Petersburgh, NY

8:38 AM EDT on April 21, 2015 (GMT -0400)
Morse State | | Change Station
CLOSE
Current Station
Airport
Location: Bennington,
Elevation: 827 ft
Nearby Weather Stations

Elev 827 ft 42.89 °N, 73.25 °W | Updated 8 minutes ago

Overcast
Overcast
49 °F
Feels Like 49 °F
N
9
Wind Variable Wind from SW

Today
High -- | Low -- °F
--% Chance of Precip.
Yesterday
High -- | Low -- °F
Precip. -- in
6:02 AM 7:42 PM
Waxing Crescent, 10% visible
Pressure 29.57 in
Visibility 1.8 miles
Clouds Mostly Cloudy 800 ft
Overcast 1200 ft
Dew Point 47 °F
Humidity 93%
Rainfall 0.39 in
Snow Depth Not available.
UV 1 out of 12
Pollen 3.50 out of 12
Air Quality Not available.
Flu Activity Widespread
SPECI KDDH 211230Z AUTO 23008KT 1 3/4SM -RA BR BKN008 OVC012 09/08 A2957 RMK AO2 RAB14 P0001 T00940083

More Conditions Fewer Conditions

Pressure 29.57 in
Visibility 1.8 miles
Clouds Mostly Cloudy 800 ft
Overcast 1200 ft
Dew Point 47 °F
Humidity 93%
Rainfall 0.39 in
Snow Depth Not available.
UV 1 out of 12
Pollen 3.50 out of 12
Air Quality Not available.
Flu Activity Widespread
SPECI KDDH 211230Z AUTO 23008KT 1 3/4SM -RA BR BKN008 OVC012 09/08 A2957 RMK AO2 RAB14 P0001 T00940083

More Conditions Fewer Conditions

10-Day Weather Forecast

Almanac

Astronomy

Apr. 21, 2015 Rise Set
Actual Time
Civil Twilight
Nautical Twilight
Astronomical Twilight
Moon
Length of Visible Light
Length of Day
Tomorrow will be .
, % of the Moon is Illuminated

Today's Extremes

State Highs State Lows

Community

WunderPhotos

Upload Photos

1,815,354 photos uploaded!

WunderBlogs® & News

Nearby

Air Quality

  Air Quality AQ Index Pollutant
Not available.

Snow Depth

Station Depth Elevation

Earthquake Activity

City Distance Mag. Time & Date
Minimum magnitude displayed is 2.5.

Coastal Water Temperatures

Place Temperature

Stations

Nearby Weather Stations

Station Location Temp. Windchill Dew Point Humidity Wind Precip. Elev Updated Type